sensor_id;sensor_type;location;lat;lon;timestamp;temperature;humidity
9666;DHT22;4871;52.004;5.924;2023-05-17T00:00:00;10.4;62.7
9666;DHT22;4871;52.004;5.924;2023-05-17T00:01:00;10.4;62.4
9666;DHT22;4871;52.004;5.924;2023-05-17T00:02:00;10.4;62.7
9666;DHT22;4871;52.004;5.924;2023-05-17T00:03:00;10.4;62.5
9666;DHT22;4871;52.004;5.924;2023-05-17T00:04:00;10.4;62.8
9666;DHT22;4871;52.004;5.924;2023-05-17T00:05:00;10.4;62.8
9666;DHT22;4871;52.004;5.924;2023-05-17T00:06:00;10.4;62.5
9666;DHT22;4871;52.004;5.924;2023-05-17T00:07:00;10.4;62.4
9666;DHT22;4871;52.004;5.924;2023-05-17T00:08:00;10.4;62.7
9666;DHT22;4871;52.004;5.924;2023-05-17T00:09:00;10.4;62.7
9666;DHT22;4871;52.004;5.924;2023-05-17T00:10:00;10.4;62.6
9666;DHT22;4871;52.004;5.924;2023-05-17T00:11:00;10.3;62.8
9666;DHT22;4871;52.004;5.924;2023-05-17T00:12:00;10.4;62.7
9666;DHT22;4871;52.004;5.924;2023-05-17T00:13:00;10.3;62.6
9666;DHT22;4871;52.004;5.924;2023-05-17T00:14:00;10.3;62.9
9666;DHT22;4871;52.004;5.924;2023-05-17T00:15:00;10.3;63.0
9666;DHT22;4871;52.004;5.924;2023-05-17T00:16:00;10.3;62.9
9666;DHT22;4871;52.004;5.924;2023-05-17T00:17:00;10.3;62.9
9666;DHT22;4871;52.004;5.924;2023-05-17T00:18:00;10.3;62.9
9666;DHT22;4871;52.004;5.924;2023-05-17T00:19:00;10.3;62.5
9666;DHT22;4871;52.004;5.924;2023-05-17T00:20:00;10.3;62.7
9666;DHT22;4871;52.004;5.924;2023-05-17T00:21:00;10.3;62.7
9666;DHT22;4871;52.004;5.924;2023-05-17T00:22:00;10.3;62.9
9666;DHT22;4871;52.004;5.924;2023-05-17T00:23:00;10.3;62.6
9666;DHT22;4871;52.004;5.924;2023-05-17T00:24:00;10.3;62.8
9666;DHT22;4871;52.004;5.924;2023-05-17T00:25:00;10.3;63.0
9666;DHT22;4871;52.004;5.924;2023-05-17T00:26:00;10.3;62.6
9666;DHT22;4871;52.004;5.924;2023-05-17T00:27:00;10.2;62.7
9666;DHT22;4871;52.004;5.924;2023-05-17T00:28:00;10.2;62.8
9666;DHT22;4871;52.004;5.924;2023-05-17T00:29:01;10.3;62.7
9666;DHT22;4871;52.004;5.924;2023-05-17T00:30:00;10.2;62.7
9666;DHT22;4871;52.004;5.924;2023-05-17T00:31:00;10.3;62.7
9666;DHT22;4871;52.004;5.924;2023-05-17T00:32:00;10.2;62.7
9666;DHT22;4871;52.004;5.924;2023-05-17T00:33:00;10.3;62.8
9666;DHT22;4871;52.004;5.924;2023-05-17T00:34:00;10.2;62.7
9666;DHT22;4871;52.004;5.924;2023-05-17T00:35:00;10.2;62.9
9666;DHT22;4871;52.004;5.924;2023-05-17T00:36:00;10.2;62.7
9666;DHT22;4871;52.004;5.924;2023-05-17T00:37:00;10.2;63.0
9666;DHT22;4871;52.004;5.924;2023-05-17T00:38:00;10.2;62.8
9666;DHT22;4871;52.004;5.924;2023-05-17T00:39:00;10.2;62.7
9666;DHT22;4871;52.004;5.924;2023-05-17T00:40:00;10.2;62.8
9666;DHT22;4871;52.004;5.924;2023-05-17T00:41:00;10.2;62.8
9666;DHT22;4871;52.004;5.924;2023-05-17T00:42:00;10.2;62.8
9666;DHT22;4871;52.004;5.924;2023-05-17T00:43:00;10.2;62.8
9666;DHT22;4871;52.004;5.924;2023-05-17T00:44:00;10.2;62.5
9666;DHT22;4871;52.004;5.924;2023-05-17T00:45:00;10.2;62.6
9666;DHT22;4871;52.004;5.924;2023-05-17T00:46:00;10.2;62.8
9666;DHT22;4871;52.004;5.924;2023-05-17T00:47:02;10.2;62.9
9666;DHT22;4871;52.004;5.924;2023-05-17T00:48:00;10.1;62.8
9666;DHT22;4871;52.004;5.924;2023-05-17T00:49:00;10.1;62.8
9666;DHT22;4871;52.004;5.924;2023-05-17T00:50:00;10.1;62.9
9666;DHT22;4871;52.004;5.924;2023-05-17T00:51:00;10.1;62.8
9666;DHT22;4871;52.004;5.924;2023-05-17T00:52:00;10.1;62.9
9666;DHT22;4871;52.004;5.924;2023-05-17T00:53:00;10.1;62.8
9666;DHT22;4871;52.004;5.924;2023-05-17T00:54:01;10.1;62.8
9666;DHT22;4871;52.004;5.924;2023-05-17T00:55:00;10.1;63.1
9666;DHT22;4871;52.004;5.924;2023-05-17T00:56:00;10.1;62.8
9666;DHT22;4871;52.004;5.924;2023-05-17T00:57:01;10.0;62.7
9666;DHT22;4871;52.004;5.924;2023-05-17T00:58:00;10.1;63.0
9666;DHT22;4871;52.004;5.924;2023-05-17T00:59:01;10.1;63.1
9666;DHT22;4871;52.004;5.924;2023-05-17T01:00:00;10.0;63.0
9666;DHT22;4871;52.004;5.924;2023-05-17T01:01:00;10.1;62.9
9666;DHT22;4871;52.004;5.924;2023-05-17T01:02:00;10.0;63.0
9666;DHT22;4871;52.004;5.924;2023-05-17T01:03:00;10.0;63.1
9666;DHT22;4871;52.004;5.924;2023-05-17T01:04:01;10.0;62.9
9666;DHT22;4871;52.004;5.924;2023-05-17T01:05:00;10.0;63.0
9666;DHT22;4871;52.004;5.924;2023-05-17T01:06:00;10.0;63.0
9666;DHT22;4871;52.004;5.924;2023-05-17T01:07:00;10.0;63.0
9666;DHT22;4871;52.004;5.924;2023-05-17T01:08:00;10.0;63.0
9666;DHT22;4871;52.004;5.924;2023-05-17T01:09:00;10.0;63.0
9666;DHT22;4871;52.004;5.924;2023-05-17T01:10:00;10.0;63.0
9666;DHT22;4871;52.004;5.924;2023-05-17T01:11:07;10.0;62.9
9666;DHT22;4871;52.004;5.924;2023-05-17T01:12:07;10.0;62.9
9666;DHT22;4871;52.004;5.924;2023-05-17T01:13:02;10.0;62.9
9666;DHT22;4871;52.004;5.924;2023-05-17T01:14:08;10.0;62.9
9666;DHT22;4871;52.004;5.924;2023-05-17T01:15:07;10.0;62.6
9666;DHT22;4871;52.004;5.924;2023-05-17T01:16:06;10.0;63.1
9666;DHT22;4871;52.004;5.924;2023-05-17T01:17:04;10.0;63.1
9666;DHT22;4871;52.004;5.924;2023-05-17T01:18:08;10.0;63.0
9666;DHT22;4871;52.004;5.924;2023-05-17T01:19:07;10.0;62.8
9666;DHT22;4871;52.004;5.924;2023-05-17T01:20:04;10.0;63.0
9666;DHT22;4871;52.004;5.924;2023-05-17T01:21:02;9.9;63.2
9666;DHT22;4871;52.004;5.924;2023-05-17T01:22:10;10.0;62.9
9666;DHT22;4871;52.004;5.924;2023-05-17T01:23:11;9.9;62.9
9666;DHT22;4871;52.004;5.924;2023-05-17T01:24:09;9.9;63.3
9666;DHT22;4871;52.004;5.924;2023-05-17T01:25:09;9.9;63.0
9666;DHT22;4871;52.004;5.924;2023-05-17T01:26:05;9.9;63.1
9666;DHT22;4871;52.004;5.924;2023-05-17T01:27:03;9.9;63.1
9666;DHT22;4871;52.004;5.924;2023-05-17T01:28:02;9.9;63.0
9666;DHT22;4871;52.004;5.924;2023-05-17T01:29:01;9.9;63.2
9666;DHT22;4871;52.004;5.924;2023-05-17T01:30:01;9.9;63.3
9666;DHT22;4871;52.004;5.924;2023-05-17T01:31:02;9.9;63.0
9666;DHT22;4871;52.004;5.924;2023-05-17T01:32:01;9.9;63.1
9666;DHT22;4871;52.004;5.924;2023-05-17T01:33:01;9.9;63.1
9666;DHT22;4871;52.004;5.924;2023-05-17T01:34:00;9.9;63.2
9666;DHT22;4871;52.004;5.924;2023-05-17T01:35:03;9.9;63.1
9666;DHT22;4871;52.004;5.924;2023-05-17T01:36:00;9.9;63.3
9666;DHT22;4871;52.004;5.924;2023-05-17T01:37:00;9.9;63.2
9666;DHT22;4871;52.004;5.924;2023-05-17T01:38:00;9.9;63.2
9666;DHT22;4871;52.004;5.924;2023-05-17T01:39:00;9.9;63.0
9666;DHT22;4871;52.004;5.924;2023-05-17T01:40:00;9.9;63.0
9666;DHT22;4871;52.004;5.924;2023-05-17T01:41:04;9.9;63.1
9666;DHT22;4871;52.004;5.924;2023-05-17T01:42:06;9.9;63.2
9666;DHT22;4871;52.004;5.924;2023-05-17T01:43:07;9.8;63.5
9666;DHT22;4871;52.004;5.924;2023-05-17T01:44:05;9.8;63.5
9666;DHT22;4871;52.004;5.924;2023-05-17T01:45:05;9.8;63.3
9666;DHT22;4871;52.004;5.924;2023-05-17T01:46:06;9.8;63.4
9666;DHT22;4871;52.004;5.924;2023-05-17T01:47:04;9.8;63.4
9666;DHT22;4871;52.004;5.924;2023-05-17T01:48:08;9.8;63.3
9666;DHT22;4871;52.004;5.924;2023-05-17T01:49:07;9.8;63.3
9666;DHT22;4871;52.004;5.924;2023-05-17T01:50:01;9.8;63.5
9666;DHT22;4871;52.004;5.924;2023-05-17T01:51:01;9.8;63.2
9666;DHT22;4871;52.004;5.924;2023-05-17T01:52:04;9.8;63.2
9666;DHT22;4871;52.004;5.924;2023-05-17T01:53:04;9.8;63.6
9666;DHT22;4871;52.004;5.924;2023-05-17T01:54:01;9.8;63.2
9666;DHT22;4871;52.004;5.924;2023-05-17T01:55:05;9.8;63.3
9666;DHT22;4871;52.004;5.924;2023-05-17T01:56:02;9.8;63.4
9666;DHT22;4871;52.004;5.924;2023-05-17T01:57:03;9.8;63.4
9666;DHT22;4871;52.004;5.924;2023-05-17T01:58:02;9.8;63.3
9666;DHT22;4871;52.004;5.924;2023-05-17T01:59:02;9.8;63.4
9666;DHT22;4871;52.004;5.924;2023-05-17T02:00:03;9.8;63.4
9666;DHT22;4871;52.004;5.924;2023-05-17T02:01:01;9.8;63.4
9666;DHT22;4871;52.004;5.924;2023-05-17T02:02:05;9.8;63.6
9666;DHT22;4871;52.004;5.924;2023-05-17T02:03:00;9.8;63.8
9666;DHT22;4871;52.004;5.924;2023-05-17T02:04:01;9.8;63.6
9666;DHT22;4871;52.004;5.924;2023-05-17T02:05:00;9.8;63.9
9666;DHT22;4871;52.004;5.924;2023-05-17T02:06:00;9.8;63.8
9666;DHT22;4871;52.004;5.924;2023-05-17T02:07:00;9.8;63.9
9666;DHT22;4871;52.004;5.924;2023-05-17T02:08:00;9.8;63.9
9666;DHT22;4871;52.004;5.924;2023-05-17T02:09:02;9.8;63.7
9666;DHT22;4871;52.004;5.924;2023-05-17T02:10:00;9.8;63.8
9666;DHT22;4871;52.004;5.924;2023-05-17T02:11:00;9.9;63.5
9666;DHT22;4871;52.004;5.924;2023-05-17T02:12:00;9.8;63.8
9666;DHT22;4871;52.004;5.924;2023-05-17T02:13:00;9.8;63.4
9666;DHT22;4871;52.004;5.924;2023-05-17T02:14:00;9.8;63.7
9666;DHT22;4871;52.004;5.924;2023-05-17T02:15:00;9.8;63.6
9666;DHT22;4871;52.004;5.924;2023-05-17T02:16:00;9.8;63.7
9666;DHT22;4871;52.004;5.924;2023-05-17T02:17:00;9.8;63.8
9666;DHT22;4871;52.004;5.924;2023-05-17T02:18:00;9.8;63.6
9666;DHT22;4871;52.004;5.924;2023-05-17T02:19:00;9.8;63.5
9666;DHT22;4871;52.004;5.924;2023-05-17T02:20:00;9.8;63.6
9666;DHT22;4871;52.004;5.924;2023-05-17T02:21:00;9.8;63.6
9666;DHT22;4871;52.004;5.924;2023-05-17T02:22:00;9.8;63.6
9666;DHT22;4871;52.004;5.924;2023-05-17T02:23:00;9.8;63.5
9666;DHT22;4871;52.004;5.924;2023-05-17T02:24:00;9.8;63.4
9666;DHT22;4871;52.004;5.924;2023-05-17T02:25:01;9.8;63.6
9666;DHT22;4871;52.004;5.924;2023-05-17T02:26:00;9.8;63.4
9666;DHT22;4871;52.004;5.924;2023-05-17T02:27:00;9.8;63.3
9666;DHT22;4871;52.004;5.924;2023-05-17T02:28:00;9.9;63.3
9666;DHT22;4871;52.004;5.924;2023-05-17T02:29:00;9.8;63.4
9666;DHT22;4871;52.004;5.924;2023-05-17T02:30:01;9.8;63.4
9666;DHT22;4871;52.004;5.924;2023-05-17T02:31:01;9.8;63.6
9666;DHT22;4871;52.004;5.924;2023-05-17T02:32:00;9.8;63.6
9666;DHT22;4871;52.004;5.924;2023-05-17T02:33:00;9.8;63.7
9666;DHT22;4871;52.004;5.924;2023-05-17T02:34:00;9.7;63.8
9666;DHT22;4871;52.004;5.924;2023-05-17T02:35:00;9.8;63.6
9666;DHT22;4871;52.004;5.924;2023-05-17T02:36:00;9.8;63.6
9666;DHT22;4871;52.004;5.924;2023-05-17T02:37:00;9.7;63.8
9666;DHT22;4871;52.004;5.924;2023-05-17T02:38:00;9.7;63.8
9666;DHT22;4871;52.004;5.924;2023-05-17T02:39:00;9.8;63.7
9666;DHT22;4871;52.004;5.924;2023-05-17T02:40:00;9.8;63.7
9666;DHT22;4871;52.004;5.924;2023-05-17T02:41:00;9.8;63.6
9666;DHT22;4871;52.004;5.924;2023-05-17T02:42:00;9.8;63.5
9666;DHT22;4871;52.004;5.924;2023-05-17T02:43:00;9.8;63.5
9666;DHT22;4871;52.004;5.924;2023-05-17T02:44:00;9.8;63.5
9666;DHT22;4871;52.004;5.924;2023-05-17T02:45:00;9.8;63.5
9666;DHT22;4871;52.004;5.924;2023-05-17T02:46:00;9.8;63.4
9666;DHT22;4871;52.004;5.924;2023-05-17T02:47:00;9.8;63.4
9666;DHT22;4871;52.004;5.924;2023-05-17T02:48:00;9.8;63.6
9666;DHT22;4871;52.004;5.924;2023-05-17T02:49:00;9.8;63.6
9666;DHT22;4871;52.004;5.924;2023-05-17T02:50:00;9.8;63.6
9666;DHT22;4871;52.004;5.924;2023-05-17T02:51:00;9.8;63.8
9666;DHT22;4871;52.004;5.924;2023-05-17T02:52:01;9.8;63.6
9666;DHT22;4871;52.004;5.924;2023-05-17T02:53:00;9.9;63.5
9666;DHT22;4871;52.004;5.924;2023-05-17T02:54:00;9.9;63.5
9666;DHT22;4871;52.004;5.924;2023-05-17T02:55:00;9.9;63.6
9666;DHT22;4871;52.004;5.924;2023-05-17T02:56:00;9.9;63.6
9666;DHT22;4871;52.004;5.924;2023-05-17T02:57:01;9.9;64.0
9666;DHT22;4871;52.004;5.924;2023-05-17T02:58:00;9.9;63.8
9666;DHT22;4871;52.004;5.924;2023-05-17T02:59:00;9.9;63.5
9666;DHT22;4871;52.004;5.924;2023-05-17T03:00:00;9.9;63.5
9666;DHT22;4871;52.004;5.924;2023-05-17T03:01:00;9.9;63.5
9666;DHT22;4871;52.004;5.924;2023-05-17T03:02:00;9.9;63.5
9666;DHT22;4871;52.004;5.924;2023-05-17T03:03:00;9.9;63.7
9666;DHT22;4871;52.004;5.924;2023-05-17T03:04:00;9.9;63.5
9666;DHT22;4871;52.004;5.924;2023-05-17T03:05:00;9.9;63.7
9666;DHT22;4871;52.004;5.924;2023-05-17T03:06:01;9.9;63.6
9666;DHT22;4871;52.004;5.924;2023-05-17T03:07:00;10.0;63.6
9666;DHT22;4871;52.004;5.924;2023-05-17T03:08:00;9.9;63.6
9666;DHT22;4871;52.004;5.924;2023-05-17T03:09:00;10.0;63.6
9666;DHT22;4871;52.004;5.924;2023-05-17T03:10:00;10.0;63.6
9666;DHT22;4871;52.004;5.924;2023-05-17T03:11:00;10.0;63.7
9666;DHT22;4871;52.004;5.924;2023-05-17T03:12:00;10.0;63.6
9666;DHT22;4871;52.004;5.924;2023-05-17T03:13:00;10.0;63.5
9666;DHT22;4871;52.004;5.924;2023-05-17T03:14:00;10.0;63.5
9666;DHT22;4871;52.004;5.924;2023-05-17T03:15:00;10.0;63.7
9666;DHT22;4871;52.004;5.924;2023-05-17T03:16:01;9.9;63.8
9666;DHT22;4871;52.004;5.924;2023-05-17T03:17:00;9.9;63.6
9666;DHT22;4871;52.004;5.924;2023-05-17T03:18:00;10.0;63.4
9666;DHT22;4871;52.004;5.924;2023-05-17T03:19:00;10.0;63.4
9666;DHT22;4871;52.004;5.924;2023-05-17T03:20:00;9.9;63.6
9666;DHT22;4871;52.004;5.924;2023-05-17T03:21:00;9.9;63.7
9666;DHT22;4871;52.004;5.924;2023-05-17T03:22:00;9.9;63.7
9666;DHT22;4871;52.004;5.924;2023-05-17T03:23:00;9.9;63.7
9666;DHT22;4871;52.004;5.924;2023-05-17T03:24:00;9.9;63.5
9666;DHT22;4871;52.004;5.924;2023-05-17T03:25:00;9.9;63.4
9666;DHT22;4871;52.004;5.924;2023-05-17T03:26:00;10.0;63.6
9666;DHT22;4871;52.004;5.924;2023-05-17T03:27:00;9.9;63.5
9666;DHT22;4871;52.004;5.924;2023-05-17T03:28:00;9.9;63.7
9666;DHT22;4871;52.004;5.924;2023-05-17T03:29:00;9.9;63.5
9666;DHT22;4871;52.004;5.924;2023-05-17T03:30:01;9.9;63.5
9666;DHT22;4871;52.004;5.924;2023-05-17T03:31:00;9.9;63.6
9666;DHT22;4871;52.004;5.924;2023-05-17T03:32:00;9.9;63.5
9666;DHT22;4871;52.004;5.924;2023-05-17T03:33:00;9.9;63.7
9666;DHT22;4871;52.004;5.924;2023-05-17T03:34:00;10.0;63.3
9666;DHT22;4871;52.004;5.924;2023-05-17T03:35:00;9.9;63.6
9666;DHT22;4871;52.004;5.924;2023-05-17T03:36:00;9.9;63.7
9666;DHT22;4871;52.004;5.924;2023-05-17T03:37:00;9.9;63.6
9666;DHT22;4871;52.004;5.924;2023-05-17T03:38:00;9.9;63.6
9666;DHT22;4871;52.004;5.924;2023-05-17T03:39:00;9.9;63.4
9666;DHT22;4871;52.004;5.924;2023-05-17T03:40:00;9.9;63.5
9666;DHT22;4871;52.004;5.924;2023-05-17T03:41:00;9.9;63.5
9666;DHT22;4871;52.004;5.924;2023-05-17T03:42:01;9.9;63.7
9666;DHT22;4871;52.004;5.924;2023-05-17T03:43:00;9.9;63.4
9666;DHT22;4871;52.004;5.924;2023-05-17T03:44:00;9.9;63.6
9666;DHT22;4871;52.004;5.924;2023-05-17T03:45:00;9.9;63.6
9666;DHT22;4871;52.004;5.924;2023-05-17T03:46:00;9.9;63.4
9666;DHT22;4871;52.004;5.924;2023-05-17T03:47:00;9.9;63.5
9666;DHT22;4871;52.004;5.924;2023-05-17T03:48:00;9.9;63.7
9666;DHT22;4871;52.004;5.924;2023-05-17T03:49:01;10.0;63.4
9666;DHT22;4871;52.004;5.924;2023-05-17T03:50:00;9.9;63.4
9666;DHT22;4871;52.004;5.924;2023-05-17T03:51:00;10.0;63.5
9666;DHT22;4871;52.004;5.924;2023-05-17T03:52:00;10.0;63.5
9666;DHT22;4871;52.004;5.924;2023-05-17T03:53:00;9.9;63.5
9666;DHT22;4871;52.004;5.924;2023-05-17T03:54:00;9.9;63.7
9666;DHT22;4871;52.004;5.924;2023-05-17T03:55:00;9.9;63.5
9666;DHT22;4871;52.004;5.924;2023-05-17T03:56:00;9.9;63.6
9666;DHT22;4871;52.004;5.924;2023-05-17T03:57:00;9.9;63.6
9666;DHT22;4871;52.004;5.924;2023-05-17T03:58:00;9.9;63.4
9666;DHT22;4871;52.004;5.924;2023-05-17T03:59:00;9.9;63.5
9666;DHT22;4871;52.004;5.924;2023-05-17T04:00:00;9.9;63.5
9666;DHT22;4871;52.004;5.924;2023-05-17T04:01:00;9.9;63.4
9666;DHT22;4871;52.004;5.924;2023-05-17T04:02:00;9.9;63.6
9666;DHT22;4871;52.004;5.924;2023-05-17T04:03:00;9.9;63.7
9666;DHT22;4871;52.004;5.924;2023-05-17T04:04:03;9.9;63.7
9666;DHT22;4871;52.004;5.924;2023-05-17T04:05:00;9.9;63.6
9666;DHT22;4871;52.004;5.924;2023-05-17T04:06:02;9.9;63.6
9666;DHT22;4871;52.004;5.924;2023-05-17T04:07:01;9.9;63.6
9666;DHT22;4871;52.004;5.924;2023-05-17T04:08:00;9.9;63.7
9666;DHT22;4871;52.004;5.924;2023-05-17T04:09:01;9.9;63.5
9666;DHT22;4871;52.004;5.924;2023-05-17T04:10:02;9.9;63.6
9666;DHT22;4871;52.004;5.924;2023-05-17T04:11:09;9.8;63.7
9666;DHT22;4871;52.004;5.924;2023-05-17T04:12:00;9.8;63.5
9666;DHT22;4871;52.004;5.924;2023-05-17T04:13:00;9.9;63.7
9666;DHT22;4871;52.004;5.924;2023-05-17T04:14:00;9.8;63.3
9666;DHT22;4871;52.004;5.924;2023-05-17T04:15:01;9.8;63.8
9666;DHT22;4871;52.004;5.924;2023-05-17T04:16:00;9.8;63.6
9666;DHT22;4871;52.004;5.924;2023-05-17T04:17:00;9.8;63.7
9666;DHT22;4871;52.004;5.924;2023-05-17T04:18:00;9.8;63.7
9666;DHT22;4871;52.004;5.924;2023-05-17T04:19:00;9.8;63.6
9666;DHT22;4871;52.004;5.924;2023-05-17T04:20:01;9.8;63.6
9666;DHT22;4871;52.004;5.924;2023-05-17T04:21:00;9.8;63.7
9666;DHT22;4871;52.004;5.924;2023-05-17T04:22:00;9.8;63.7
9666;DHT22;4871;52.004;5.924;2023-05-17T04:23:00;9.8;63.7
9666;DHT22;4871;52.004;5.924;2023-05-17T04:24:00;9.7;63.9
9666;DHT22;4871;52.004;5.924;2023-05-17T04:25:00;9.7;63.8
9666;DHT22;4871;52.004;5.924;2023-05-17T04:26:00;9.7;63.6
9666;DHT22;4871;52.004;5.924;2023-05-17T04:27:03;9.7;63.8
9666;DHT22;4871;52.004;5.924;2023-05-17T04:28:00;9.7;63.7
9666;DHT22;4871;52.004;5.924;2023-05-17T04:29:00;9.8;63.6
9666;DHT22;4871;52.004;5.924;2023-05-17T04:30:01;9.7;63.6
9666;DHT22;4871;52.004;5.924;2023-05-17T04:31:01;9.7;63.8
9666;DHT22;4871;52.004;5.924;2023-05-17T04:32:00;9.7;63.7
9666;DHT22;4871;52.004;5.924;2023-05-17T04:33:00;9.7;63.8
9666;DHT22;4871;52.004;5.924;2023-05-17T04:34:01;9.7;63.7
9666;DHT22;4871;52.004;5.924;2023-05-17T04:35:00;9.7;63.8
9666;DHT22;4871;52.004;5.924;2023-05-17T04:36:01;9.7;63.7
9666;DHT22;4871;52.004;5.924;2023-05-17T04:37:00;9.7;63.7
9666;DHT22;4871;52.004;5.924;2023-05-17T04:38:00;9.7;63.5
9666;DHT22;4871;52.004;5.924;2023-05-17T04:39:02;9.7;63.7
9666;DHT22;4871;52.004;5.924;2023-05-17T04:40:01;9.7;63.7
9666;DHT22;4871;52.004;5.924;2023-05-17T04:41:01;9.7;63.5
9666;DHT22;4871;52.004;5.924;2023-05-17T04:42:01;9.8;63.5
9666;DHT22;4871;52.004;5.924;2023-05-17T04:43:00;9.8;63.5
9666;DHT22;4871;52.004;5.924;2023-05-17T04:44:00;9.8;63.6
9666;DHT22;4871;52.004;5.924;2023-05-17T04:45:00;9.8;63.5
9666;DHT22;4871;52.004;5.924;2023-05-17T04:46:00;9.8;63.6
9666;DHT22;4871;52.004;5.924;2023-05-17T04:47:01;9.8;63.4
9666;DHT22;4871;52.004;5.924;2023-05-17T04:48:00;9.8;63.5
9666;DHT22;4871;52.004;5.924;2023-05-17T04:49:02;9.8;63.4
9666;DHT22;4871;52.004;5.924;2023-05-17T04:50:00;9.8;63.4
9666;DHT22;4871;52.004;5.924;2023-05-17T04:51:02;9.8;63.3
9666;DHT22;4871;52.004;5.924;2023-05-17T04:52:00;9.8;63.5
9666;DHT22;4871;52.004;5.924;2023-05-17T04:53:00;9.8;63.3
9666;DHT22;4871;52.004;5.924;2023-05-17T04:54:00;9.8;63.3
9666;DHT22;4871;52.004;5.924;2023-05-17T04:55:00;9.8;63.3
9666;DHT22;4871;52.004;5.924;2023-05-17T04:56:00;9.8;63.4
9666;DHT22;4871;52.004;5.924;2023-05-17T04:57:00;9.9;63.3
9666;DHT22;4871;52.004;5.924;2023-05-17T04:58:00;9.9;63.2
9666;DHT22;4871;52.004;5.924;2023-05-17T04:59:02;9.9;63.3
9666;DHT22;4871;52.004;5.924;2023-05-17T05:00:01;9.9;63.2
9666;DHT22;4871;52.004;5.924;2023-05-17T05:01:00;9.9;63.2
9666;DHT22;4871;52.004;5.924;2023-05-17T05:02:00;9.9;63.2
9666;DHT22;4871;52.004;5.924;2023-05-17T05:03:00;10.0;63.1
9666;DHT22;4871;52.004;5.924;2023-05-17T05:04:05;10.0;63.2
9666;DHT22;4871;52.004;5.924;2023-05-17T05:05:00;10.0;63.2
9666;DHT22;4871;52.004;5.924;2023-05-17T05:06:00;9.9;63.1
9666;DHT22;4871;52.004;5.924;2023-05-17T05:07:00;10.0;63.1
9666;DHT22;4871;52.004;5.924;2023-05-17T05:08:00;10.0;63.1
9666;DHT22;4871;52.004;5.924;2023-05-17T05:09:00;10.0;63.0
9666;DHT22;4871;52.004;5.924;2023-05-17T05:10:00;10.0;63.1
9666;DHT22;4871;52.004;5.924;2023-05-17T05:11:00;10.1;63.0
9666;DHT22;4871;52.004;5.924;2023-05-17T05:12:00;10.1;62.9
9666;DHT22;4871;52.004;5.924;2023-05-17T05:13:00;10.1;62.8
9666;DHT22;4871;52.004;5.924;2023-05-17T05:14:00;10.1;62.8
9666;DHT22;4871;52.004;5.924;2023-05-17T05:15:00;10.1;62.4
9666;DHT22;4871;52.004;5.924;2023-05-17T05:16:00;10.2;62.6
9666;DHT22;4871;52.004;5.924;2023-05-17T05:17:00;10.2;62.7
9666;DHT22;4871;52.004;5.924;2023-05-17T05:18:00;10.1;62.7
9666;DHT22;4871;52.004;5.924;2023-05-17T05:19:00;10.2;62.6
9666;DHT22;4871;52.004;5.924;2023-05-17T05:20:00;10.2;62.6
9666;DHT22;4871;52.004;5.924;2023-05-17T05:21:00;10.2;62.5
9666;DHT22;4871;52.004;5.924;2023-05-17T05:22:00;10.3;62.4
9666;DHT22;4871;52.004;5.924;2023-05-17T05:23:02;10.3;62.3
9666;DHT22;4871;52.004;5.924;2023-05-17T05:24:00;10.3;62.6
9666;DHT22;4871;52.004;5.924;2023-05-17T05:25:00;10.3;62.4
9666;DHT22;4871;52.004;5.924;2023-05-17T05:26:00;10.3;62.4
9666;DHT22;4871;52.004;5.924;2023-05-17T05:27:01;10.4;62.3
9666;DHT22;4871;52.004;5.924;2023-05-17T05:28:00;10.4;62.4
9666;DHT22;4871;52.004;5.924;2023-05-17T05:29:00;10.4;62.4
9666;DHT22;4871;52.004;5.924;2023-05-17T05:30:01;10.4;62.2
9666;DHT22;4871;52.004;5.924;2023-05-17T05:31:00;10.4;62.4
9666;DHT22;4871;52.004;5.924;2023-05-17T05:32:01;10.5;62.1
9666;DHT22;4871;52.004;5.924;2023-05-17T05:33:00;10.5;62.2
9666;DHT22;4871;52.004;5.924;2023-05-17T05:34:00;10.5;62.1
9666;DHT22;4871;52.004;5.924;2023-05-17T05:35:00;10.5;62.1
9666;DHT22;4871;52.004;5.924;2023-05-17T05:36:00;10.5;62.1
9666;DHT22;4871;52.004;5.924;2023-05-17T05:37:00;10.6;62.0
9666;DHT22;4871;52.004;5.924;2023-05-17T05:38:00;10.6;61.9
9666;DHT22;4871;52.004;5.924;2023-05-17T05:39:01;10.7;61.9
9666;DHT22;4871;52.004;5.924;2023-05-17T05:40:00;10.7;62.0
9666;DHT22;4871;52.004;5.924;2023-05-17T05:41:00;10.7;62.1
9666;DHT22;4871;52.004;5.924;2023-05-17T05:42:00;10.7;62.0
9666;DHT22;4871;52.004;5.924;2023-05-17T05:43:00;10.7;61.9
9666;DHT22;4871;52.004;5.924;2023-05-17T05:44:00;10.7;62.0
9666;DHT22;4871;52.004;5.924;2023-05-17T05:45:00;10.8;62.2
9666;DHT22;4871;52.004;5.924;2023-05-17T05:46:00;10.8;62.5
9666;DHT22;4871;52.004;5.924;2023-05-17T05:47:00;10.8;62.0
9666;DHT22;4871;52.004;5.924;2023-05-17T05:48:00;10.8;62.0
9666;DHT22;4871;52.004;5.924;2023-05-17T05:49:00;10.8;62.1
9666;DHT22;4871;52.004;5.924;2023-05-17T05:50:00;10.8;62.2
9666;DHT22;4871;52.004;5.924;2023-05-17T05:51:00;10.8;62.1
9666;DHT22;4871;52.004;5.924;2023-05-17T05:52:00;10.8;62.1
9666;DHT22;4871;52.004;5.924;2023-05-17T05:53:00;10.8;62.3
9666;DHT22;4871;52.004;5.924;2023-05-17T05:54:00;10.8;62.3
9666;DHT22;4871;52.004;5.924;2023-05-17T05:55:00;10.8;62.3
9666;DHT22;4871;52.004;5.924;2023-05-17T05:56:00;10.8;62.1
9666;DHT22;4871;52.004;5.924;2023-05-17T05:57:00;10.9;62.1
9666;DHT22;4871;52.004;5.924;2023-05-17T05:58:00;10.9;62.1
9666;DHT22;4871;52.004;5.924;2023-05-17T05:59:01;10.9;62.2
9666;DHT22;4871;52.004;5.924;2023-05-17T06:00:00;10.9;62.0
9666;DHT22;4871;52.004;5.924;2023-05-17T06:01:00;10.9;62.1
9666;DHT22;4871;52.004;5.924;2023-05-17T06:02:00;10.9;62.0
9666;DHT22;4871;52.004;5.924;2023-05-17T06:03:00;10.9;62.2
9666;DHT22;4871;52.004;5.924;2023-05-17T06:04:00;11.0;62.2
9666;DHT22;4871;52.004;5.924;2023-05-17T06:05:02;11.1;62.7
9666;DHT22;4871;52.004;5.924;2023-05-17T06:06:00;11.2;62.6
9666;DHT22;4871;52.004;5.924;2023-05-17T06:07:00;11.2;62.1
9666;DHT22;4871;52.004;5.924;2023-05-17T06:08:00;11.2;62.3
9666;DHT22;4871;52.004;5.924;2023-05-17T06:09:00;11.3;63.0
9666;DHT22;4871;52.004;5.924;2023-05-17T06:10:00;11.4;63.5
9666;DHT22;4871;52.004;5.924;2023-05-17T06:11:00;11.5;63.7
9666;DHT22;4871;52.004;5.924;2023-05-17T06:12:00;11.5;64.5
9666;DHT22;4871;52.004;5.924;2023-05-17T06:13:00;11.5;62.6
9666;DHT22;4871;52.004;5.924;2023-05-17T06:14:00;11.5;62.9
9666;DHT22;4871;52.004;5.924;2023-05-17T06:15:01;11.5;62.4
9666;DHT22;4871;52.004;5.924;2023-05-17T06:16:00;11.5;62.8
9666;DHT22;4871;52.004;5.924;2023-05-17T06:17:00;11.5;62.7
9666;DHT22;4871;52.004;5.924;2023-05-17T06:18:00;11.5;62.3
9666;DHT22;4871;52.004;5.924;2023-05-17T06:19:00;11.5;62.3
9666;DHT22;4871;52.004;5.924;2023-05-17T06:20:00;11.7;62.8
9666;DHT22;4871;52.004;5.924;2023-05-17T06:21:00;11.8;62.3
9666;DHT22;4871;52.004;5.924;2023-05-17T06:22:00;11.7;62.8
9666;DHT22;4871;52.004;5.924;2023-05-17T06:23:01;11.8;61.9
9666;DHT22;4871;52.004;5.924;2023-05-17T06:24:00;11.8;62.0
9666;DHT22;4871;52.004;5.924;2023-05-17T06:25:00;11.8;62.0
9666;DHT22;4871;52.004;5.924;2023-05-17T06:26:00;11.8;61.9
9666;DHT22;4871;52.004;5.924;2023-05-17T06:27:00;11.8;61.9
9666;DHT22;4871;52.004;5.924;2023-05-17T06:28:02;11.8;61.5
9666;DHT22;4871;52.004;5.924;2023-05-17T06:29:00;11.8;61.6
9666;DHT22;4871;52.004;5.924;2023-05-17T06:30:00;11.8;61.5
9666;DHT22;4871;52.004;5.924;2023-05-17T06:31:00;11.8;61.3
9666;DHT22;4871;52.004;5.924;2023-05-17T06:32:00;11.8;61.6
9666;DHT22;4871;52.004;5.924;2023-05-17T06:33:00;11.8;61.2
9666;DHT22;4871;52.004;5.924;2023-05-17T06:34:00;11.8;61.4
9666;DHT22;4871;52.004;5.924;2023-05-17T06:35:01;11.8;61.4
9666;DHT22;4871;52.004;5.924;2023-05-17T06:36:00;11.8;61.4
9666;DHT22;4871;52.004;5.924;2023-05-17T06:37:00;11.8;61.4
9666;DHT22;4871;52.004;5.924;2023-05-17T06:38:00;11.8;61.5
9666;DHT22;4871;52.004;5.924;2023-05-17T06:39:00;11.8;61.4
9666;DHT22;4871;52.004;5.924;2023-05-17T06:40:01;11.8;61.5
9666;DHT22;4871;52.004;5.924;2023-05-17T06:41:00;11.9;61.7
9666;DHT22;4871;52.004;5.924;2023-05-17T06:42:00;12.0;62.0
9666;DHT22;4871;52.004;5.924;2023-05-17T06:43:01;12.1;61.3
9666;DHT22;4871;52.004;5.924;2023-05-17T06:44:00;12.1;61.5
9666;DHT22;4871;52.004;5.924;2023-05-17T06:45:00;12.2;61.2
9666;DHT22;4871;52.004;5.924;2023-05-17T06:46:00;12.2;61.1
9666;DHT22;4871;52.004;5.924;2023-05-17T06:47:00;12.2;62.1
9666;DHT22;4871;52.004;5.924;2023-05-17T06:48:00;12.2;61.3